createdAt,value
2023-06-04T04:00:33.131Z,481.00
2023-06-04T04:01:34.087Z,474.00
2023-06-04T04:02:34.179Z,478.00
2023-06-04T04:03:34.133Z,484.00
2023-06-04T04:04:34.079Z,487.00
2023-06-04T04:05:34.087Z,495.00
2023-06-04T04:06:34.052Z,498.00
2023-06-04T04:07:34.052Z,502.00
2023-06-04T04:08:34.024Z,507.00
2023-06-04T04:09:34.024Z,514.00
2023-06-04T04:10:34.003Z,515.00
2023-06-04T04:11:33.992Z,520.00
2023-06-04T04:12:34.038Z,525.00
2023-06-04T04:13:33.965Z,525.00
2023-06-04T04:14:34.174Z,529.00
2023-06-04T04:15:33.964Z,535.00
2023-06-04T04:16:33.965Z,542.00
2023-06-04T04:17:34.145Z,541.00
2023-06-04T04:18:33.899Z,545.00
2023-06-04T04:19:33.896Z,553.00
2023-06-04T04:20:33.902Z,550.00
2023-06-04T04:21:33.908Z,549.00
2023-06-04T04:22:33.852Z,561.00
2023-06-04T04:23:33.899Z,561.00
2023-06-04T04:24:33.834Z,562.00
2023-06-04T04:25:33.853Z,562.00
2023-06-04T04:26:33.819Z,564.00
2023-06-04T04:27:33.849Z,564.00
2023-06-04T04:28:33.789Z,575.00
2023-06-04T04:29:33.869Z,575.00
2023-06-04T04:30:33.775Z,575.00
2023-06-04T04:31:33.900Z,582.00
2023-06-04T04:32:33.877Z,577.00
2023-06-04T04:33:33.863Z,578.00
2023-06-04T04:34:33.740Z,582.00
2023-06-04T04:35:33.749Z,580.00
2023-06-04T04:36:33.704Z,585.00
2023-06-04T04:37:33.712Z,591.00
2023-06-04T04:38:33.700Z,590.00
2023-06-04T04:39:33.681Z,586.00
2023-06-04T04:40:33.689Z,594.00
2023-06-04T04:41:33.791Z,590.00
2023-06-04T04:42:33.646Z,592.00
2023-06-04T04:43:33.671Z,592.00
2023-06-04T04:44:33.612Z,590.00
2023-06-04T04:45:33.638Z,593.00
2023-06-04T04:46:33.662Z,590.00
2023-06-04T04:47:33.628Z,592.00
2023-06-04T04:48:33.574Z,597.00
2023-06-04T04:49:33.589Z,594.00
2023-06-04T04:50:33.550Z,597.00
2023-06-04T04:51:33.599Z,595.00
2023-06-04T04:52:33.538Z,594.00
2023-06-04T04:53:33.510Z,600.00
2023-06-04T04:54:33.534Z,597.00
2023-06-04T04:55:33.505Z,597.00
2023-06-04T04:56:33.507Z,597.00
2023-06-04T04:57:33.477Z,599.00
2023-06-04T04:58:33.492Z,599.00
2023-06-04T04:59:33.456Z,596.00
2023-06-04T05:00:33.441Z,599.00
2023-06-04T05:01:33.499Z,596.00
2023-06-04T05:02:33.507Z,593.00
2023-06-04T05:03:33.427Z,593.00
2023-06-04T05:04:33.526Z,587.00
2023-06-04T05:05:33.382Z,589.00
2023-06-04T05:06:33.372Z,583.00
2023-06-04T05:07:33.364Z,581.00
2023-06-04T05:08:33.365Z,583.00
2023-06-04T05:09:33.335Z,580.00
2023-06-04T05:10:33.347Z,577.00
2023-06-04T05:11:33.324Z,570.00
2023-06-04T05:12:33.344Z,573.00
2023-06-04T05:13:33.311Z,568.00
2023-06-04T05:14:33.282Z,564.00
2023-06-04T05:15:33.298Z,559.00
2023-06-04T05:16:33.313Z,561.00
2023-06-04T05:17:33.932Z,567.00
2023-06-04T05:18:33.237Z,559.00
2023-06-04T05:19:33.264Z,560.00
2023-06-04T05:20:33.241Z,565.00
2023-06-04T05:21:33.215Z,556.00
2023-06-04T05:22:33.201Z,559.00
2023-06-04T05:23:33.215Z,552.00
2023-06-04T05:24:33.181Z,549.00
2023-06-04T05:25:33.170Z,548.00
2023-06-04T05:26:33.152Z,547.00
2023-06-04T05:27:33.137Z,555.00
2023-06-04T05:28:33.130Z,545.00
2023-06-04T05:29:33.113Z,553.00
2023-06-04T05:30:33.121Z,548.00
2023-06-04T05:31:33.137Z,542.00
2023-06-04T05:32:33.260Z,546.00
2023-06-04T05:33:33.099Z,539.00
2023-06-04T05:34:33.055Z,541.00
2023-06-04T05:35:33.064Z,538.00
2023-06-04T05:36:33.083Z,525.00
2023-06-04T05:37:33.044Z,531.00
2023-06-04T05:38:33.064Z,526.00
2023-06-04T05:39:33.003Z,528.00
2023-06-04T05:40:33.007Z,522.00
2023-06-04T05:41:32.992Z,522.00
2023-06-04T05:42:32.957Z,514.00
2023-06-04T05:43:32.979Z,514.00
2023-06-04T05:44:32.967Z,510.00
2023-06-04T05:45:33.016Z,509.00
2023-06-04T05:46:32.976Z,506.00
2023-06-04T05:47:32.958Z,507.00
2023-06-04T05:48:32.938Z,503.00
2023-06-04T05:49:32.895Z,505.00
2023-06-04T05:50:32.875Z,501.00
2023-06-04T05:51:32.899Z,502.00
2023-06-04T05:52:32.885Z,507.00
2023-06-04T05:53:32.846Z,512.00
2023-06-04T05:54:32.860Z,517.00
2023-06-04T05:55:32.883Z,523.00
2023-06-04T05:56:32.818Z,527.00
2023-06-04T05:57:32.816Z,531.00
2023-06-04T05:58:32.788Z,536.00
2023-06-04T05:59:32.790Z,540.00
2023-06-04T06:00:32.778Z,543.00
2023-06-04T06:01:32.777Z,546.00
2023-06-04T06:02:32.856Z,549.00
2023-06-04T06:03:32.796Z,552.00
2023-06-04T06:04:32.816Z,557.00
2023-06-04T06:05:32.724Z,560.00
2023-06-04T06:06:32.706Z,561.00
2023-06-04T06:07:32.744Z,564.00
2023-06-04T06:08:32.695Z,567.00
2023-06-04T06:09:32.695Z,569.00
2023-06-04T06:10:32.698Z,570.00
2023-06-04T06:11:32.654Z,575.00
2023-06-04T06:12:32.641Z,585.00
2023-06-04T06:13:32.626Z,584.00
2023-06-04T06:14:32.622Z,598.00
2023-06-04T06:15:32.650Z,587.00
2023-06-04T06:16:32.579Z,602.00
2023-06-04T06:17:32.625Z,605.00
2023-06-04T06:18:32.564Z,602.00
2023-06-04T06:19:32.559Z,619.00
2023-06-04T06:20:32.546Z,620.00
2023-06-04T06:21:32.541Z,629.00
2023-06-04T06:22:32.515Z,631.00
2023-06-04T06:23:32.568Z,638.00
2023-06-04T06:24:32.533Z,647.00
2023-06-04T06:25:32.496Z,646.00
2023-06-04T06:26:32.489Z,657.00
2023-06-04T06:27:32.480Z,663.00
2023-06-04T06:28:32.464Z,656.00
2023-06-04T06:29:32.453Z,654.00
2023-06-04T06:30:32.476Z,676.00
2023-06-04T06:31:32.484Z,687.00
2023-06-04T06:32:32.422Z,685.00
2023-06-04T06:33:32.425Z,691.00
2023-06-04T06:34:32.400Z,680.00
2023-06-04T06:35:32.394Z,697.00
2023-06-04T06:36:32.532Z,718.00
2023-06-04T06:37:32.368Z,725.00
2023-06-04T06:38:32.363Z,728.00
2023-06-04T06:39:32.340Z,726.00
2023-06-04T06:40:32.354Z,732.00
2023-06-04T06:41:32.360Z,745.00
2023-06-04T06:42:32.305Z,742.00
2023-06-04T06:43:32.310Z,756.00
2023-06-04T06:44:32.344Z,758.00
2023-06-04T06:45:32.282Z,769.00
2023-06-04T06:46:32.305Z,774.00
2023-06-04T06:47:32.314Z,775.00
2023-06-04T06:48:32.265Z,806.00
2023-06-04T06:49:32.234Z,801.00
2023-06-04T06:50:32.262Z,817.00
2023-06-04T06:51:32.260Z,831.00
2023-06-04T06:52:34.431Z,849.00
2023-06-04T06:53:32.187Z,842.00
2023-06-04T06:54:32.180Z,850.00
2023-06-04T06:55:33.122Z,869.00
2023-06-04T06:56:32.187Z,870.00
2023-06-04T06:57:32.149Z,896.00
2023-06-04T06:58:32.136Z,905.00
2023-06-04T06:59:32.118Z,904.00
2023-06-04T07:00:32.129Z,907.00
2023-06-04T07:01:32.199Z,937.00
2023-06-04T07:02:32.274Z,909.00
2023-06-04T07:03:32.239Z,943.00
2023-06-04T07:04:32.118Z,961.00
2023-06-04T07:05:32.088Z,949.00
2023-06-04T07:06:32.084Z,968.00
2023-06-04T07:07:32.100Z,998.00
2023-06-04T07:08:32.029Z,975.00
2023-06-04T07:09:32.108Z,1006.00
2023-06-04T07:10:32.046Z,1053.00
2023-06-04T07:11:32.061Z,1048.00
2023-06-04T07:12:31.992Z,1040.00
2023-06-04T07:13:32.020Z,1028.00
2023-06-04T07:14:31.961Z,1068.00
2023-06-04T07:15:31.965Z,1083.00
2023-06-04T07:16:32.110Z,1087.00
2023-06-04T07:17:32.021Z,1074.00
2023-06-04T07:18:31.889Z,1112.00
2023-06-04T07:19:31.893Z,1145.00
2023-06-04T07:20:31.956Z,1160.00
2023-06-04T07:21:31.870Z,1172.00
2023-06-04T07:22:31.885Z,1179.00
2023-06-04T07:23:32.054Z,1205.00
2023-06-04T07:24:31.847Z,1214.00
2023-06-04T07:25:31.904Z,1234.00
2023-06-04T07:26:33.270Z,1245.00
2023-06-04T07:27:31.826Z,1271.00
2023-06-04T07:28:31.803Z,1273.00
2023-06-04T07:29:31.783Z,1286.00
2023-06-04T07:30:31.772Z,1294.00
2023-06-04T07:31:31.855Z,1314.00
2023-06-04T07:32:31.852Z,1346.00
2023-06-04T07:33:31.747Z,1342.00
2023-06-04T07:34:31.726Z,1370.00
2023-06-04T07:35:31.719Z,1424.00
2023-06-04T07:36:31.734Z,1436.00
2023-06-04T07:37:31.757Z,1450.00
2023-06-04T07:38:31.688Z,1458.00
2023-06-04T07:39:31.702Z,1502.00
2023-06-04T07:40:31.658Z,1489.00
2023-06-04T07:41:31.717Z,1503.00
2023-06-04T07:42:31.701Z,1512.00
2023-06-04T07:43:31.741Z,1517.00
2023-06-04T07:44:31.638Z,1550.00
2023-06-04T07:45:33.293Z,1546.00
2023-06-04T07:46:31.619Z,1569.00
2023-06-04T07:47:31.646Z,1565.00
2023-06-04T07:48:31.604Z,1583.00
2023-06-04T07:49:31.650Z,1623.00
2023-06-04T07:50:34.004Z,1645.00
2023-06-04T07:51:31.654Z,1618.00
2023-06-04T07:52:31.748Z,1649.00
2023-06-04T07:53:31.518Z,1669.00
2023-06-04T07:54:31.508Z,1687.00
2023-06-04T07:55:31.559Z,1704.00
2023-06-04T07:56:31.669Z,1724.00
2023-06-04T07:57:31.533Z,1733.00
2023-06-04T07:58:31.506Z,1757.00
2023-06-04T07:59:31.445Z,1764.00
2023-06-04T08:00:31.444Z,1770.00
2023-06-04T08:01:31.590Z,1805.00
2023-06-04T08:02:32.007Z,1805.00
2023-06-04T08:03:31.578Z,1838.00
2023-06-04T08:04:31.636Z,1855.00
2023-06-04T08:05:31.424Z,1863.00
2023-06-04T08:06:31.408Z,1825.00
2023-06-04T08:07:31.373Z,1892.00
2023-06-04T08:08:32.429Z,1872.00
2023-06-04T08:09:31.388Z,1884.00
2023-06-04T08:10:31.401Z,1917.00
2023-06-04T08:11:31.356Z,1930.00
2023-06-04T08:12:31.474Z,1973.00
2023-06-04T08:13:31.295Z,1946.00
2023-06-04T08:14:31.301Z,1958.00
2023-06-04T08:15:31.272Z,1958.00
2023-06-04T08:16:31.314Z,2012.00
2023-06-04T08:17:31.294Z,2001.00
2023-06-04T08:18:31.305Z,1990.00
2023-06-04T08:19:31.249Z,2023.00
2023-06-04T08:20:31.249Z,2015.00
2023-06-04T08:21:31.244Z,2042.00
2023-06-04T08:22:31.204Z,2031.00
2023-06-04T08:23:31.262Z,2046.00
2023-06-04T08:24:31.180Z,2087.00
2023-06-04T08:25:31.179Z,2085.00
2023-06-04T08:26:31.160Z,2108.00
2023-06-04T08:27:31.138Z,2118.00
2023-06-04T08:28:31.191Z,2154.00
2023-06-04T08:29:31.248Z,2163.00
2023-06-04T08:30:31.118Z,2213.00
2023-06-04T08:31:31.254Z,2277.00
2023-06-04T08:32:31.134Z,2253.00
2023-06-04T08:33:31.111Z,2274.00
2023-06-04T08:34:31.104Z,2284.00
2023-06-04T08:35:31.092Z,2323.00
2023-06-04T08:36:31.048Z,2298.00
2023-06-04T08:37:31.078Z,2338.00
2023-06-04T08:38:31.040Z,2345.00
2023-06-04T08:39:31.017Z,2392.00
2023-06-04T08:40:31.064Z,2403.00
2023-06-04T08:41:31.027Z,2436.00
2023-06-04T08:42:31.089Z,2504.00
2023-06-04T08:43:30.990Z,2504.00
2023-06-04T08:44:30.950Z,2554.00
2023-06-04T08:45:31.037Z,2570.00
2023-06-04T08:46:30.999Z,2604.00
2023-06-04T08:47:31.017Z,2645.00
2023-06-04T08:48:30.924Z,2663.00
2023-06-04T08:49:30.918Z,2741.00
2023-06-04T08:50:30.920Z,2760.00
2023-06-04T08:51:30.925Z,2836.00
2023-06-04T08:52:30.882Z,2801.00
2023-06-04T08:53:30.961Z,2866.00
2023-06-04T08:54:31.013Z,2914.00
2023-06-04T08:55:30.960Z,2934.00
2023-06-04T08:56:30.902Z,3027.00
2023-06-04T08:57:30.879Z,2996.00
2023-06-04T08:58:30.866Z,3088.00
2023-06-04T08:59:31.756Z,3120.00
2023-06-04T09:00:30.836Z,3158.00
2023-06-04T09:01:30.937Z,3206.00
2023-06-04T09:02:30.821Z,3227.00
2023-06-04T09:03:30.772Z,3288.00
2023-06-04T09:04:30.768Z,3300.00
2023-06-04T09:05:30.762Z,3374.00
2023-06-04T09:06:30.730Z,3393.00
2023-06-04T09:07:30.703Z,3400.00
2023-06-04T09:08:30.699Z,3434.00
2023-06-04T09:09:30.733Z,3458.00
2023-06-04T09:10:30.731Z,3474.00
2023-06-04T09:11:30.657Z,3493.00
2023-06-04T09:12:32.071Z,3556.00
2023-06-04T09:13:30.647Z,3537.00
2023-06-04T09:14:30.627Z,3582.00
2023-06-04T09:15:30.629Z,3597.00
2023-06-04T09:16:30.733Z,3594.00
2023-06-04T09:17:30.669Z,3632.00
2023-06-04T09:18:30.593Z,3672.00
2023-06-04T09:19:30.602Z,3736.00
2023-06-04T09:20:30.585Z,3689.00
2023-06-04T09:21:30.561Z,3794.00
2023-06-04T09:22:30.556Z,3815.00
2023-06-04T09:23:30.542Z,3852.00
2023-06-04T09:24:30.553Z,3894.00
2023-06-04T09:25:30.508Z,3966.00
2023-06-04T09:26:30.512Z,3983.00
2023-06-04T09:27:30.487Z,3991.00
2023-06-04T09:28:30.497Z,4030.00
2023-06-04T09:29:30.482Z,4043.00
2023-06-04T09:30:30.458Z,4048.00
2023-06-04T09:31:30.584Z,4062.00
2023-06-04T09:32:30.515Z,4049.00
2023-06-04T09:33:30.435Z,4086.00
2023-06-04T09:34:30.423Z,4073.00
2023-06-04T09:35:30.430Z,4098.00
2023-06-04T09:36:30.383Z,4091.00
2023-06-04T09:37:30.382Z,4107.00
2023-06-04T09:38:30.393Z,4137.00
2023-06-04T09:39:30.359Z,4123.00
2023-06-04T09:40:30.346Z,4145.00
2023-06-04T09:41:30.329Z,4168.00
2023-06-04T09:42:30.324Z,4137.00
2023-06-04T09:43:30.313Z,4173.00
2023-06-04T09:44:30.303Z,4169.00
2023-06-04T09:45:30.340Z,4248.00
2023-06-04T09:46:30.332Z,4222.00
2023-06-04T09:47:30.303Z,4235.00
2023-06-04T09:48:30.251Z,4234.00
2023-06-04T09:49:30.266Z,4326.00
2023-06-04T09:50:30.242Z,4217.00
2023-06-04T09:51:30.276Z,4194.00
2023-06-04T09:52:30.237Z,4260.00
2023-06-04T09:53:32.359Z,4316.00
2023-06-04T09:54:30.201Z,4318.00
2023-06-04T09:55:30.197Z,4359.00
2023-06-04T09:56:30.186Z,4411.00
2023-06-04T09:57:30.183Z,4410.00
2023-06-04T09:58:30.156Z,4464.00
2023-06-04T09:59:30.147Z,4492.00
2023-06-04T10:00:30.121Z,4531.00
2023-06-04T10:01:30.184Z,4520.00
2023-06-04T10:02:30.194Z,4585.00
2023-06-04T10:03:30.257Z,4616.00
2023-06-04T10:04:30.125Z,4674.00
2023-06-04T10:05:30.106Z,4730.00
2023-06-04T10:06:30.148Z,4756.00
2023-06-04T10:07:30.070Z,4816.00
2023-06-04T10:08:30.061Z,4788.00
2023-06-04T10:09:31.890Z,4860.00
2023-06-04T10:10:30.054Z,4865.00
2023-06-04T10:11:30.008Z,4926.00
2023-06-04T10:12:30.101Z,4964.00
2023-06-04T10:13:29.987Z,5019.00
2023-06-04T10:14:29.975Z,5026.00
2023-06-04T10:15:29.970Z,5055.00
2023-06-04T10:16:34.495Z,5129.00
2023-06-04T10:17:30.175Z,5137.00
2023-06-04T10:18:30.003Z,5257.00
2023-06-04T10:19:29.955Z,5127.00
2023-06-04T10:20:29.941Z,5259.00
2023-06-04T10:21:29.935Z,5287.00
2023-06-04T10:22:29.896Z,5308.00
2023-06-04T10:23:29.918Z,5315.00
2023-06-04T10:24:30.387Z,5304.00
2023-06-04T10:25:29.856Z,5409.00
2023-06-04T10:26:29.872Z,5391.00
2023-06-04T10:27:29.835Z,5393.00
2023-06-04T10:28:29.830Z,5372.00
2023-06-04T10:29:29.813Z,5409.00
2023-06-04T10:30:29.800Z,5486.00
2023-06-04T10:31:29.830Z,5457.00
2023-06-04T10:32:29.849Z,5471.00
2023-06-04T10:33:29.777Z,5511.00
2023-06-04T10:34:29.759Z,5499.00
2023-06-04T10:35:29.745Z,5555.00
2023-06-04T10:36:29.743Z,5548.00
2023-06-04T10:37:29.720Z,5539.00
2023-06-04T10:38:29.719Z,5572.00
2023-06-04T10:39:29.714Z,5603.00
2023-06-04T10:40:29.700Z,5624.00
2023-06-04T10:41:29.695Z,5664.00
2023-06-04T10:42:29.668Z,5681.00
2023-06-04T10:43:29.676Z,5673.00
2023-06-04T10:44:29.653Z,5725.00
2023-06-04T10:45:29.655Z,5702.00
2023-06-04T10:46:29.699Z,5782.00
2023-06-04T10:47:29.639Z,5779.00
2023-06-04T10:48:29.631Z,5789.00
2023-06-04T10:49:29.784Z,5769.00
2023-06-04T10:50:29.671Z,5800.00
2023-06-04T10:51:29.646Z,5834.00
2023-06-04T10:52:29.652Z,5806.00
2023-06-04T10:53:29.617Z,5844.00
2023-06-04T10:54:29.653Z,5858.00
2023-06-04T10:55:29.575Z,5846.00
2023-06-04T10:56:29.589Z,5850.00
2023-06-04T10:57:29.577Z,5880.00
2023-06-04T10:58:29.560Z,5903.00
2023-06-04T10:59:29.560Z,5958.00
2023-06-04T11:00:29.561Z,5946.00
2023-06-04T11:01:29.544Z,5924.00
2023-06-04T11:02:29.585Z,5964.00
2023-06-04T11:03:29.601Z,5965.00
2023-06-04T11:04:29.450Z,5993.00
2023-06-04T11:05:29.437Z,6028.00
2023-06-04T11:06:29.427Z,6042.00
2023-06-04T11:07:29.423Z,6036.00
2023-06-04T11:08:29.420Z,6047.00
2023-06-04T11:09:29.378Z,6116.00
2023-06-04T11:10:29.378Z,6137.00
2023-06-04T11:11:29.351Z,6122.00
2023-06-04T11:12:29.342Z,6185.00
2023-06-04T11:13:29.339Z,6191.00
2023-06-04T11:14:29.317Z,6168.00
2023-06-04T11:15:29.319Z,6209.00
2023-06-04T11:16:29.319Z,6189.00
2023-06-04T11:17:29.297Z,6194.00
2023-06-04T11:18:29.270Z,6214.00
2023-06-04T11:19:29.266Z,6205.00
2023-06-04T11:20:29.294Z,6210.00
2023-06-04T11:21:29.261Z,6195.00
2023-06-04T11:22:29.252Z,6235.00
2023-06-04T11:23:29.256Z,6231.00
2023-06-04T11:24:29.221Z,6259.00
2023-06-04T11:25:29.204Z,6240.00
2023-06-04T11:26:29.189Z,6223.00
2023-06-04T11:27:36.751Z,6275.00
2023-06-04T11:28:29.203Z,6250.00
2023-06-04T11:29:29.154Z,6280.00
2023-06-04T11:30:29.168Z,6300.00
2023-06-04T11:31:29.169Z,6240.00
2023-06-04T11:32:29.228Z,6269.00
2023-06-04T11:33:29.105Z,6281.00
2023-06-04T11:34:29.085Z,6285.00
2023-06-04T11:35:29.094Z,6292.00
2023-06-04T11:36:29.072Z,6287.00
2023-06-04T11:37:29.052Z,6298.00
2023-06-04T11:38:29.048Z,6337.00
2023-06-04T11:39:29.029Z,6537.00
2023-06-04T11:40:29.017Z,6139.00
2023-06-04T11:41:29.018Z,6257.00
2023-06-04T11:42:29.011Z,6352.00
2023-06-04T11:43:28.985Z,6339.00
2023-06-04T11:44:28.982Z,6371.00
2023-06-04T11:45:28.957Z,6395.00
2023-06-04T11:46:28.993Z,6456.00
2023-06-04T11:47:29.017Z,6473.00
2023-06-04T11:48:29.167Z,6453.00
2023-06-04T11:49:28.912Z,6502.00
2023-06-04T11:50:28.966Z,6613.00
2023-06-04T11:51:28.934Z,6629.00
2023-06-04T11:52:28.902Z,6616.00
2023-06-04T11:53:28.898Z,6620.00
2023-06-04T11:54:28.890Z,6662.00
2023-06-04T11:55:28.874Z,6655.00
2023-06-04T11:56:28.882Z,6701.00
2023-06-04T11:57:28.823Z,6726.00
2023-06-04T11:58:28.839Z,6754.00
2023-06-04T11:59:28.820Z,6745.00
2023-06-04T12:00:28.797Z,6772.00
2023-06-04T12:01:28.831Z,6847.00
2023-06-04T12:02:28.814Z,6948.00
2023-06-04T12:03:28.809Z,6956.00
2023-06-04T12:04:28.765Z,7171.00
2023-06-04T12:05:28.793Z,7626.00
2023-06-04T12:06:28.743Z,7543.00
2023-06-04T12:07:28.744Z,7563.00
2023-06-04T12:08:28.711Z,7966.00
2023-06-04T12:09:28.707Z,8168.00
2023-06-04T12:10:28.692Z,8073.00
2023-06-04T12:11:28.702Z,7978.00
2023-06-04T12:12:28.682Z,7852.00
2023-06-04T12:13:28.670Z,7930.00
2023-06-04T12:14:29.927Z,8055.00
2023-06-04T12:15:28.641Z,8297.00
2023-06-04T12:16:28.642Z,8554.00
2023-06-04T12:17:28.649Z,8708.00
2023-06-04T12:18:28.594Z,8626.00
2023-06-04T12:19:28.615Z,9054.00
2023-06-04T12:20:28.582Z,9161.00
2023-06-04T12:21:28.585Z,9148.00
2023-06-04T12:22:28.612Z,9113.00
2023-06-04T12:23:28.585Z,9445.00
2023-06-04T12:24:28.551Z,9927.00
2023-06-04T12:25:28.529Z,9916.00
2023-06-04T12:26:28.514Z,9731.00
2023-06-04T12:27:28.538Z,9687.00
2023-06-04T12:28:28.534Z,10316.00
2023-06-04T12:29:28.488Z,10281.00
2023-06-04T12:30:28.471Z,10442.00
2023-06-04T12:31:28.545Z,10039.00
2023-06-04T12:32:28.526Z,10301.00
2023-06-04T12:33:28.457Z,11514.00
2023-06-04T12:34:28.449Z,11071.00
2023-06-04T12:35:28.425Z,11376.00
2023-06-04T12:36:28.420Z,11388.00
2023-06-04T12:37:28.467Z,11290.00
2023-06-04T12:38:28.394Z,11450.00
2023-06-04T12:39:28.399Z,11372.00
2023-06-04T12:40:28.386Z,12266.00
2023-06-04T12:41:28.408Z,12100.00
2023-06-04T12:42:28.359Z,12130.00
2023-06-04T12:43:28.352Z,12507.00
2023-06-04T12:44:28.374Z,13270.00
2023-06-04T12:45:28.348Z,13741.00
2023-06-04T12:46:28.340Z,12786.00
2023-06-04T12:47:28.330Z,12949.00
2023-06-04T12:48:28.305Z,13514.00
2023-06-04T12:49:28.273Z,13402.00
2023-06-04T12:50:28.275Z,13284.00
2023-06-04T12:51:28.253Z,14918.00
2023-06-04T12:52:28.267Z,15832.00
2023-06-04T12:53:28.249Z,15497.00
2023-06-04T12:54:28.240Z,14837.00
2023-06-04T12:55:28.580Z,16406.00
2023-06-04T12:56:28.205Z,17191.00
2023-06-04T12:57:28.277Z,14778.00
2023-06-04T12:58:28.214Z,14858.00
2023-06-04T12:59:28.213Z,16763.00
2023-06-04T13:00:28.174Z,16665.00
2023-06-04T13:01:28.784Z,15831.00
2023-06-04T13:02:28.276Z,16224.00
2023-06-04T13:03:28.240Z,18122.00
2023-06-04T13:04:28.143Z,16526.00
2023-06-04T13:05:28.124Z,15666.00
2023-06-04T13:06:28.104Z,17170.00
2023-06-04T13:07:28.620Z,18160.00
2023-06-04T13:08:28.844Z,19299.00
2023-06-04T13:09:28.087Z,20184.00
2023-06-04T13:10:28.051Z,20179.00
2023-06-04T13:11:28.051Z,19779.00
2023-06-04T13:12:28.039Z,19404.00
2023-06-04T13:13:28.039Z,18922.00
2023-06-04T13:14:28.028Z,20946.00
2023-06-04T13:15:28.009Z,22530.00
2023-06-04T13:16:28.082Z,21356.00
2023-06-04T13:17:28.056Z,22973.00
2023-06-04T13:18:28.027Z,22251.00
2023-06-04T13:19:28.091Z,19835.00
2023-06-04T13:20:27.957Z,20982.00
2023-06-04T13:21:27.965Z,23170.00
2023-06-04T13:22:27.938Z,24367.00
2023-06-04T13:23:41.360Z,24866.00
2023-06-04T13:24:27.979Z,22665.00
2023-06-04T13:25:27.911Z,19123.00
2023-06-04T13:26:27.913Z,21700.00
2023-06-04T13:27:27.917Z,26104.00
2023-06-04T13:28:27.877Z,25716.00
2023-06-04T13:29:27.890Z,23350.00
2023-06-04T13:30:27.875Z,23811.00
2023-06-04T13:31:27.943Z,23338.00
2023-06-04T13:32:27.870Z,22861.00
2023-06-04T13:33:27.874Z,23354.00
2023-06-04T13:34:28.667Z,23402.00
2023-06-04T13:35:27.830Z,24128.00
2023-06-04T13:36:27.812Z,26068.00
2023-06-04T13:37:27.809Z,26448.00
2023-06-04T13:38:27.774Z,25054.00
2023-06-04T13:39:27.840Z,22073.00
2023-06-04T13:40:27.782Z,22125.00
2023-06-04T13:41:27.740Z,25755.00
2023-06-04T13:42:27.738Z,30147.00
2023-06-04T13:43:27.729Z,30500.00
2023-06-04T13:44:27.712Z,26678.00
2023-06-04T13:45:27.731Z,26831.00
2023-06-04T13:46:27.696Z,28514.00
2023-06-04T13:47:27.689Z,28833.00
2023-06-04T13:48:27.664Z,30839.00
2023-06-04T13:49:27.688Z,27549.00
2023-06-04T13:50:27.682Z,25618.00
2023-06-04T13:51:27.649Z,32386.00
2023-06-04T13:52:27.651Z,38077.00
2023-06-04T13:53:27.621Z,36057.00
2023-06-04T13:54:27.616Z,33367.00
2023-06-04T13:55:27.603Z,31138.00
2023-06-04T13:56:27.610Z,29089.00
2023-06-04T13:57:27.587Z,26941.00
2023-06-04T13:58:27.589Z,30679.00
2023-06-04T13:59:27.555Z,32826.00
2023-06-04T14:00:27.599Z,31693.00
2023-06-04T14:01:27.583Z,31790.00
2023-06-04T14:02:27.616Z,31369.00
2023-06-04T14:03:27.618Z,30115.00
2023-06-04T14:04:27.532Z,31251.00
2023-06-04T14:05:27.559Z,30001.00
2023-06-04T14:06:27.483Z,30262.00
2023-06-04T14:07:27.503Z,31735.00
2023-06-04T14:08:27.479Z,29758.00
2023-06-04T14:09:27.460Z,34425.00
2023-06-04T14:10:27.461Z,38457.00
2023-06-04T14:11:27.433Z,31985.00
2023-06-04T14:12:27.438Z,28750.00
2023-06-04T14:13:27.442Z,27286.00
2023-06-04T14:14:27.451Z,34385.00
2023-06-04T14:15:27.440Z,73009.00
2023-06-04T14:16:27.443Z,72506.00
2023-06-04T14:17:27.459Z,38274.00
2023-06-04T14:18:27.376Z,38393.00
2023-06-04T14:19:27.866Z,72712.00
2023-06-04T14:20:27.391Z,72717.00
2023-06-04T14:21:27.411Z,36338.00
2023-06-04T14:22:27.351Z,34964.00
2023-06-04T14:23:27.354Z,32789.00
2023-06-04T14:24:27.326Z,29270.00
2023-06-04T14:25:27.312Z,26323.00
2023-06-04T14:26:27.355Z,31037.00
2023-06-04T14:27:27.296Z,74640.00
2023-06-04T14:28:27.305Z,73660.00
2023-06-04T14:29:27.293Z,32382.00
2023-06-04T14:30:27.289Z,39469.00
2023-06-04T14:31:27.302Z,34176.00
2023-06-04T14:32:27.304Z,73981.00
2023-06-04T14:33:27.251Z,74446.00
2023-06-04T14:34:27.229Z,73850.00
2023-06-04T14:35:27.216Z,73403.00
2023-06-04T14:36:27.216Z,73907.00
2023-06-04T14:37:27.195Z,74357.00
2023-06-04T14:38:27.204Z,73601.00
2023-06-04T14:39:27.183Z,74098.00
2023-06-04T14:40:27.167Z,75490.00
2023-06-04T14:41:27.167Z,75986.00
2023-06-04T14:42:27.126Z,75620.00
2023-06-04T14:43:27.136Z,74125.00
2023-06-04T14:44:27.125Z,72454.00
2023-06-04T14:45:27.138Z,72661.00
2023-06-04T14:46:27.870Z,74419.00
2023-06-04T14:47:27.207Z,74807.00
2023-06-04T14:48:27.158Z,73904.00
2023-06-04T14:49:27.076Z,74159.00
2023-06-04T14:50:27.161Z,75175.00
2023-06-04T14:51:27.076Z,75427.00
2023-06-04T14:52:27.064Z,75053.00
2023-06-04T14:53:27.032Z,74845.00
2023-06-04T14:54:27.028Z,73981.00
2023-06-04T14:55:27.032Z,73613.00
2023-06-04T14:56:27.430Z,32511.00
2023-06-04T14:57:27.786Z,27619.00
2023-06-04T14:58:26.986Z,28199.00
2023-06-04T14:59:27.014Z,29721.00
2023-06-04T15:00:26.965Z,28699.00
2023-06-04T15:01:27.042Z,75307.00
2023-06-04T15:02:26.987Z,75973.00
2023-06-04T15:03:27.147Z,75780.00
2023-06-04T15:04:26.914Z,76072.00
2023-06-04T15:05:26.927Z,77036.00
2023-06-04T15:06:26.929Z,77098.00
2023-06-04T15:07:26.945Z,75960.00
2023-06-04T15:08:26.888Z,74793.00
2023-06-04T15:09:26.938Z,74912.00
2023-06-04T15:10:26.858Z,75094.00
2023-06-04T15:11:26.864Z,74839.00
2023-06-04T15:12:26.870Z,74657.00
2023-06-04T15:13:26.904Z,75028.00
2023-06-04T15:14:26.820Z,75593.00
2023-06-04T15:15:26.819Z,75446.00
2023-06-04T15:16:26.817Z,75544.00
2023-06-04T15:17:26.896Z,77069.00
2023-06-04T15:18:26.859Z,77719.00
2023-06-04T15:19:26.790Z,76674.00
2023-06-04T15:20:26.774Z,75820.00
2023-06-04T15:21:26.769Z,76099.00
2023-06-04T15:22:26.813Z,76276.00
2023-06-04T15:23:26.872Z,75699.00
2023-06-04T15:24:26.741Z,74843.00
2023-06-04T15:25:27.887Z,74063.00
2023-06-04T15:26:26.766Z,74229.00
2023-06-04T15:27:26.787Z,75152.00
2023-06-04T15:28:26.699Z,75720.00
2023-06-04T15:29:26.800Z,75913.00
2023-06-04T15:30:26.697Z,75995.00
2023-06-04T15:31:26.771Z,75878.00
2023-06-04T15:32:26.971Z,75883.00
2023-06-04T15:33:26.647Z,76177.00
2023-06-04T15:34:26.700Z,76333.00
2023-06-04T15:35:26.624Z,76162.00
2023-06-04T15:36:26.619Z,76034.00
2023-06-04T15:37:26.676Z,76878.00
2023-06-04T15:38:26.585Z,78498.00
2023-06-04T15:39:26.593Z,78778.00
2023-06-04T15:40:26.602Z,77956.00
2023-06-04T15:41:26.587Z,76557.00
2023-06-04T15:42:26.558Z,75996.00
2023-06-04T15:43:26.546Z,76517.00
2023-06-04T15:44:26.517Z,77542.00
2023-06-04T15:45:26.558Z,78483.00
2023-06-04T15:46:27.387Z,78441.00
2023-06-04T15:47:26.540Z,77319.00
2023-06-04T15:48:26.515Z,76065.00
2023-06-04T15:49:26.484Z,76052.00
2023-06-04T15:50:26.470Z,76472.00
2023-06-04T15:51:26.457Z,76363.00
2023-06-04T15:52:26.462Z,76380.00
2023-06-04T15:53:26.466Z,76768.00
2023-06-04T15:54:43.990Z,77441.00
2023-06-04T15:55:26.429Z,77930.00
2023-06-04T15:56:26.438Z,77836.00
2023-06-04T15:57:26.424Z,77718.00
2023-06-04T15:58:26.394Z,77722.00
2023-06-04T15:59:26.407Z,77355.00
2023-06-04T16:00:26.375Z,76421.00
2023-06-04T16:01:26.394Z,76060.00
2023-06-04T16:02:26.367Z,76647.00
2023-06-04T16:03:26.375Z,77365.00
2023-06-04T16:04:26.363Z,77607.00